AirNav   Everest Fuels
 
 1066 users online  

0CL3 John Nichol's Field Airport
Chula Vista, California, USA

GOING TO CHULA VISTA?


FAA INFORMATION EFFECTIVE 01 DECEMBER 2022

Location

FAA Identifier: 0CL3
Lat/Long: 32-38-00.1400N 116-53-25.1200W
32-38.002333N 116-53.418667W
32.6333722,-116.8903111
(estimated)
Elevation: 500 ft. / 152 m (estimated)
Variation: 13E (1985)
From city: 10 miles E of CHULA VISTA, CA
Time zone: UTC -8 (UTC -7 during Daylight Saving Time)
Zip code: 91915

Airport Operations

Airport use: Private use. Permission required prior to landing
Activation date: 10/1987
Control tower: no
ARTCC: LOS ANGELES CENTER
FSS: SAN DIEGO FLIGHT SERVICE STATION
Attendance: 0800-SS
Wind indicator: yes
Segmented circle: yes

Airport Communications

WX ASOS at SDM (6 nm SW): 132.35 (619-661-8297)
WX ASOS at NRS (12 nm W): PHONE 619-437-9890
WX AWOS-3P at SEE (12 nm N): 125.45 (619-449-1228)
WX ASOS at SAN (16 nm W): PHONE 619-296-8934
WX ASOS at MYF (17 nm NW): 126.9 (858-576-4337)

Nearby radio navigation aids

VOR radial/distance  VOR name  Freq  Var
PGYr059/4.7POGGI VORTAC116.4514E
TIJr017/6.4TIJUANA VOR/DME116.5012E
MZBr103/19.1MISSION BAY VORTAC117.8015E
JLIr192/34.1JULIAN VORTAC114.0015E

Airport Services

Runway Information

Runway 9/27

Dimensions: 2036 x 30 ft. / 621 x 9 m
WESTERN 220 FT GRAVEL.
Surface: asphalt
RUNWAY 9  RUNWAY 27
Latitude: 32-38.050167N32-37.954500N
Longitude: 116-53.608833W116-53.228500W
Elevation: 488.0 ft.500.0 ft.
Traffic pattern: rightleft
Displaced threshold: 220 ft.no

Airport Ownership and Management from official FAA records

Ownership: Privately-owned
Owner: TACTICAL AIR OPERATIONS, INC.
13531 OTAY LAKES ROAD
JAMUL, CA 92035
Phone 619-216-8416
Manager: ALAN FINK, PRES.
860 COUNTRY CLUB LANE
CORONADO, CA 92118
Phone 619-216-8416

Airport Operational Statistics

Aircraft based on the field: 23
Multi engine airplanes: 3
Ultralights: 20
    

Additional Remarks

FOR CD CTC LOS ANGELES ARTCC AT 661-575-2079.

Instrument Procedures

There are no published instrument procedures at 0CL3.

Some nearby airports with instrument procedures:

KSDM - Brown Field Municipal Airport (6 nm SW)
KNRS - Imperial Beach Naval Outlying Field (Ream Field) (12 nm W)
KSEE - Gillespie Field Airport (12 nm N)
KSAN - San Diego International Airport (16 nm W)
KMYF - Montgomery-Gibbs Executive Airport (17 nm NW)
KNZY - North Island Naval Air Station (Halsey Field) Airport (17 nm W)
KNKX - Miramar MCAS (Joe Foss Field) Airport (19 nm NW)
 
Loc | Ops | Rwys | IFR | FBO | Links
Com | Nav | Svcs | Stats | Notes
Area around 0CL3 (John Nichol's Field Airport)
 
Road maps at: MapQuest Bing Google
 
Aerial photo
No photo
 
Sectional chart

 
Airport distance calculator
Flying to John Nichol's Field Airport? Find the distance to fly.

From to 0CL3

Sunrise and sunset
Times for 06-Dec-2022
 Local
(UTC-8)
 Zulu
(UTC)
Morning civil twilight06:1014:10
Sunrise06:3714:37
Sunset16:4100:41
Evening civil twilight17:0801:08

Current date and time
Zulu (UTC)  07-Dec-2022 03:22:07
Local (UTC-8)  06-Dec-2022 19:22:07
 
METAR
KSDM 
6nm SW 
070253Z 00000KT 10SM SCT020 BKN120 13/08 A3006 RMK AO2 SLP177 T01280083 51010
MMTJ 
7nm SW 
070241Z 33003KT 8SM BKN200 13/10 A3008 RMK SLP189 52007 920 8/009 ISOL SC
KSEE 
12nm N 
070247Z 00000KT 10SM BKN019 BKN029 13/09 A3006
KNRS 
12nm W 
070253Z 32004KT 10SM SCT025 BKN120 BKN200 15/09 A3006 RMK AO2 SLP179 T01500089 50009 $
KSAN 
16nm W 
070251Z 30004KT 10SM FEW025 BKN130 BKN200 14/08 A3008 RMK AO2 SLP184 T01440083 51011
KMYF 
16nm NW 
070253Z 26004KT 10SM CLR 13/08 A3006 RMK AO2 SLP178 T01330083 51012
KNZY 
17nm W 
070252Z 31005KT 10SM FEW024 BKN120 BKN200 14/08 A3006 RMK AO2 SLP177 T01440083 51012 $
KNKX 
19nm NW 
070255Z 27004KT 10SM SCT019 BKN100 12/08 A3006 RMK AO2 SLP175 T01170083 51013 $
TAF
MMTJ 
7nm SW 
061706Z 0618/0724 26008KT P6SM SCT015 BKN030 TX18/0720Z TN10/0711Z TEMPO 0622/0702 4SM RA FM070300 00000KT 6SM HZ SCT015 BKN030 FM070600 00000KT 4SM HZ OVC030 TEMPO 0711/0715 5SM -RA FM071600 27005KT 6SM HZ SCT015 SCT030
KSAN 
16nm W 
062046Z 0621/0724 29011KT P6SM SCT026 BKN040 FM070200 30005KT P6SM BKN035 FM071000 09003KT P6SM VCSH BKN030 FM071400 10004KT P6SM SHRA BKN020 FM071800 26007KT P6SM BKN040
KNZY 
17nm W 
0623/0723 27008KT 9999 FEW025 SCT040 BKN150 BKN200 QNH3000INS FM070300 29004KT 9999 SCT020 BKN035 BKN120 BKN200 QNH3005INS TEMPO 0703/0709 BKN025 FM070900 VRB04KT 9999 VCSH BKN035 BKN080 BKN150 QNH3009INS TEMPO 0709/0715 04006KT 9000 -SHRA BR BKN025 BECMG 0718/0719 27008KT 9999 SCT025 SCT055 QNH3017INS T11/0714Z T17/0720Z FS30139
KNKX 
19nm NW 
0621/0721 29007KT 9999 FEW020 SCT100 BKN250 QNH3002INS FM070330 VRB05KT 9999 BKN025 QNH3005INS BECMG 0706/0708 VCSH BKN025 QNH3002INS TEMPO 0709/0715 SHRA T17/0621Z T08/0710Z
NOTAMs
Click for the latest NOTAMs
NOTAMs are issued by the DoD/FAA and will open in a separate window not controlled by AirNav.

 

 
 

Would you like to see your business listed on this page?

 If your business provides an interesting product or service to pilots, flight crews, aircraft, or users of the John Nichol's Field Airport, you should consider listing it here.  To start the listing process, click on the button below
 
Add a business
 

Other Pages about John Nichol's Field Airport

Update a link
 
Copyright © AirNav, LLC. All rights reserved. Privacy Policy  Contact